Stations météo

réclame
Mon MeteoGroup
Casale Monferrato, Italie (16068): Température de l'air & dewpoint: 16.07.2018 08:00:00 - 22.07.2018 08:00:00 (CEST)Casale Monferrato, Italie (16068): Vitesse du vent: 16.07.2018 08:00:00 - 22.07.2018 08:00:00 (CEST)Casale Monferrato, Italie (16068): Direction du vent: 16.07.2018 08:00:00 - 22.07.2018 08:00:00 (CEST)Casale Monferrato, Italie (16068): reduced air pressure: 16.07.2018 08:00:00 - 22.07.2018 08:00:00 (CEST)Casale Monferrato, Italie (16068): Quantités de précipitations: 16.07.2018 08:00:00 - 22.07.2018 08:00:00 (CEST)
Date & Time tt [°C] td [°C] ff [km/h] ff [knt] dd ppp [hPa] rr [mm]
22.07.2018 08:00:00 - - - - - - -
22.07.2018 07:00:00 18,0 17,0 4 2 WSW 1010,9 -
22.07.2018 06:00:00 18,3 17,1 4 2 W 1010,6 -
22.07.2018 05:00:00 18,4 17,2 4 2 W 1010,3 -
22.07.2018 04:00:00 18,8 17,6 4 2 WSW 1010,7 -
22.07.2018 03:00:00 19,6 18,2 0 0 N 1010,7 -
22.07.2018 02:00:00 20,4 19,0 4 2 SW 1011,3 0,0
22.07.2018 01:00:00 21,0 19,6 9 5 WSW 1011,1 -
22.07.2018 00:00:00 21,1 19,7 5 3 WSW 1011,3 -
21.07.2018 23:00:00 21,5 20,1 5 3 W 1011,5 -
21.07.2018 22:00:00 21,8 20,2 2 1 W 1011,0 -
21.07.2018 21:00:00 22,2 20,4 4 2 WSW 1010,7 -
21.07.2018 20:00:00 23,3 21,0 4 2 NW - -
21.07.2018 19:00:00 23,6 21,2 2 1 NNE - -
21.07.2018 18:00:00 23,3 21,3 13 7 NE - -
21.07.2018 17:00:00 24,5 21,9 5 3 NNE - -
21.07.2018 16:00:00 24,0 20,9 9 5 ENE - -
21.07.2018 15:00:00 24,4 22,6 9 5 NE 1011,5 -
21.07.2018 14:00:00 23,3 20,8 8 4 N 1011,9 -
21.07.2018 13:00:00 22,3 20,7 8 4 NE 1012,0 -
21.07.2018 12:00:00 21,9 20,3 2 1 WNW 1012,0 -
21.07.2018 11:00:00 20,7 19,5 5 3 NNE 1011,9 -
21.07.2018 10:00:00 19,9 18,8 8 4 NW 1012,0 -
21.07.2018 09:00:00 18,8 17,8 4 2 N 1011,6 -
21.07.2018 08:00:00 18,7 17,7 16 9 ENE 1011,2 -
21.07.2018 07:00:00 19,1 18,1 2 1 NNW 1011,8 -
21.07.2018 06:00:00 18,8 17,8 8 4 NNE 1011,3 -
21.07.2018 05:00:00 19,0 17,8 8 4 N 1011,9 -
21.07.2018 04:00:00 19,4 18,0 4 2 NE 1012,0 -
21.07.2018 03:00:00 19,9 18,7 5 3 N 1011,8 -
21.07.2018 02:00:00 20,3 18,9 8 4 N 1012,4 -
21.07.2018 01:00:00 20,3 19,1 9 5 N 1012,3 -
21.07.2018 00:00:00 22,2 19,9 2 1 WNW 1011,7 -
20.07.2018 23:00:00 22,2 19,9 9 5 NNW - -
20.07.2018 22:00:00 22,5 19,6 8 4 NW - -
20.07.2018 21:00:00 25,5 20,9 5 3 WSW - -
20.07.2018 20:00:00 25,8 21,6 21 11 S - 0,0
20.07.2018 19:00:00 27,9 22,1 11 6 SSW - -
20.07.2018 18:00:00 29,8 23,5 21 11 S - -
20.07.2018 17:00:00 31,3 23,9 13 7 SSE - -
20.07.2018 16:00:00 31,3 24,6 13 7 SSE - -
20.07.2018 15:00:00 31,1 24,2 11 6 SSE - -
20.07.2018 14:00:00 30,7 24,8 8 4 SE - 0,0
20.07.2018 13:00:00 29,6 23,7 5 3 SE - -
20.07.2018 12:00:00 28,6 24,1 4 2 SE - -
20.07.2018 11:00:00 27,6 23,4 2 1 N 1012,8 -
20.07.2018 10:00:00 26,6 23,4 2 1 W 1013,2 -
20.07.2018 09:00:00 24,4 22,6 8 4 SW 1013,2 -
20.07.2018 08:00:00 22,9 21,5 4 2 WSW 1013,0 0,0
20.07.2018 07:00:00 21,4 19,8 0 0 N 1013,0 -
20.07.2018 06:00:00 21,3 19,7 4 2 SSW 1012,9 -
20.07.2018 05:00:00 22,2 20,4 4 2 SW 1012,6 -
20.07.2018 04:00:00 22,3 20,5 5 3 SSW 1012,6 -
20.07.2018 03:00:00 22,9 20,9 4 2 SSW 1012,6 -
20.07.2018 02:00:00 23,6 21,4 8 4 SW 1012,9 0,0
20.07.2018 01:00:00 23,7 21,0 8 4 WSW 1012,8 -
20.07.2018 00:00:00 24,1 20,4 8 4 SSW - -
19.07.2018 23:00:00 23,9 20,8 4 2 SSE - -
19.07.2018 22:00:00 25,1 20,3 4 2 SSE - -
19.07.2018 21:00:00 27,9 21,4 5 3 SSW - -
19.07.2018 20:00:00 29,3 22,2 9 5 SSW - 0,0
19.07.2018 19:00:00 30,4 24,5 5 3 N - -
19.07.2018 18:00:00 31,1 24,7 9 5 NNW - -
19.07.2018 17:00:00 31,5 24,1 8 4 ESE - -
19.07.2018 16:00:00 31,4 23,2 8 4 ESE - -
19.07.2018 15:00:00 30,8 23,4 8 4 SSE - -
19.07.2018 14:00:00 30,0 24,4 4 2 SSE - 0,0
19.07.2018 13:00:00 28,5 23,1 4 2 S - -
19.07.2018 12:00:00 27,8 23,1 4 2 NE - -
19.07.2018 11:00:00 26,0 22,2 5 3 SSE 1013,4 -
19.07.2018 10:00:00 24,1 21,2 2 1 W 1013,4 -
19.07.2018 09:00:00 22,7 20,9 5 3 NNW 1013,4 -
19.07.2018 08:00:00 21,5 20,1 2 1 W 1013,5 0,0
19.07.2018 07:00:00 20,5 19,1 2 1 W 1013,1 -
19.07.2018 06:00:00 20,0 18,6 4 2 W 1013,1 -
19.07.2018 05:00:00 20,0 18,6 0 0 N 1013,3 -
19.07.2018 04:00:00 19,5 17,9 2 1 WSW 1013,1 -
19.07.2018 03:00:00 20,0 18,2 2 1 WSW 1013,1 -
19.07.2018 02:00:00 20,4 17,7 2 1 W 1013,1 0,0
19.07.2018 01:00:00 22,4 17,7 5 3 SSW 1012,8 -
19.07.2018 00:00:00 22,6 17,2 4 2 SSW - -
18.07.2018 23:00:00 23,2 16,7 0 0 N - -
18.07.2018 22:00:00 25,1 16,5 8 4 SSW - -
18.07.2018 21:00:00 27,2 16,7 5 3 SSW - -
18.07.2018 20:00:00 29,4 19,4 11 6 S - 0,0
18.07.2018 19:00:00 30,6 21,4 8 4 E - -
18.07.2018 18:00:00 31,2 21,9 4 2 NNE - -
18.07.2018 17:00:00 31,3 21,1 5 3 ENE - -
18.07.2018 16:00:00 31,2 20,1 4 2 SE - -
18.07.2018 15:00:00 30,9 18,2 4 2 NNE - -
18.07.2018 14:00:00 29,9 18,9 5 3 E - 0,0
18.07.2018 13:00:00 29,3 19,9 4 2 ENE - -
18.07.2018 12:00:00 27,8 20,3 4 2 SSE - -
18.07.2018 11:00:00 26,8 17,8 4 2 ENE 1014,7 -
18.07.2018 10:00:00 25,5 16,6 5 3 NNE 1014,9 -
18.07.2018 09:00:00 24,4 18,5 4 2 N 1014,8 -
18.07.2018 08:00:00 21,0 19,8 0 0 N 1014,7 0,0
18.07.2018 07:00:00 18,1 16,4 2 1 SSW 1014,7 -
18.07.2018 06:00:00 18,4 16,7 4 2 WNW 1014,4 -
18.07.2018 05:00:00 17,8 16,1 2 1 W 1014,3 -
18.07.2018 04:00:00 18,6 16,9 5 3 WSW 1014,1 -
18.07.2018 03:00:00 18,4 16,8 2 1 WSW 1014,2 -
18.07.2018 02:00:00 19,5 17,8 4 2 W 1014,2 0,0
18.07.2018 01:00:00 21,0 19,2 5 3 W 1013,9 -
18.07.2018 00:00:00 20,7 18,4 0 0 N - -
17.07.2018 23:00:00 22,7 19,0 5 3 W - -
17.07.2018 22:00:00 24,0 18,1 4 2 W - -
17.07.2018 21:00:00 28,5 20,5 4 2 W - -
17.07.2018 20:00:00 30,6 20,8 4 2 E - 0,0
17.07.2018 19:00:00 31,6 16,7 4 2 S - -
17.07.2018 18:00:00 32,5 15,9 2 1 NW - -
17.07.2018 17:00:00 32,0 15,9 5 3 SW - -
17.07.2018 16:00:00 31,5 18,1 5 3 SSW - -
17.07.2018 15:00:00 31,0 19,3 5 3 WSW - -
17.07.2018 14:00:00 29,7 20,8 4 2 S - 0,0
17.07.2018 13:00:00 28,2 20,7 4 2 ESE - -
17.07.2018 12:00:00 26,3 23,7 4 2 N 1012,5 -
17.07.2018 11:00:00 24,1 22,1 4 2 SW 1012,6 -
17.07.2018 10:00:00 22,1 20,5 2 1 W 1012,8 -
17.07.2018 09:00:00 20,8 19,7 2 1 ENE 1012,6 -
17.07.2018 08:00:00 18,2 17,3 2 1 SW 1012,4 -
17.07.2018 07:00:00 16,1 15,1 4 2 SSW 1012,2 -
17.07.2018 06:00:00 16,3 15,1 0 0 N 1011,6 -
17.07.2018 05:00:00 17,2 16,0 4 2 WNW 1011,2 -
17.07.2018 04:00:00 17,8 16,6 4 2 W 1010,8 -
17.07.2018 03:00:00 18,1 17,1 4 2 WSW 1011,0 -
17.07.2018 02:00:00 18,4 17,4 2 1 W 1011,1 -
17.07.2018 01:00:00 18,7 17,5 4 2 ESE 1010,8 -
17.07.2018 00:00:00 19,8 18,7 5 3 W 1010,7 -
16.07.2018 23:00:00 20,0 18,8 4 2 W 1011,2 -
16.07.2018 22:00:00 20,6 19,4 2 1 W 1011,2 -
16.07.2018 21:00:00 21,1 19,9 2 1 NW 1011,4 -
16.07.2018 20:00:00 21,1 19,9 8 4 NNW 1010,1 -
16.07.2018 19:00:00 20,9 19,5 4 2 NNE 1009,9 -
16.07.2018 18:00:00 21,0 19,8 4 2 ESE 1010,3 -
16.07.2018 17:00:00 20,2 19,0 11 6 SE 1010,5 -
16.07.2018 16:00:00 19,6 18,6 4 2 WNW 1011,2 -
16.07.2018 15:00:00 19,5 17,9 18 10 SSE - -
16.07.2018 14:00:00 24,5 22,1 9 5 NNW - 0,0
16.07.2018 13:00:00 25,0 23,0 8 4 NNE 1011,5 -
16.07.2018 12:00:00 23,6 21,8 9 5 NNE 1012,3 -
16.07.2018 11:00:00 23,4 21,8 8 4 NNE 1012,7 -
16.07.2018 10:00:00 23,0 21,2 11 6 NE 1013,0 -
16.07.2018 09:00:00 22,5 20,9 8 4 NE 1013,1 -
16.07.2018 08:00:00 21,5 20,1 8 4 NNE 1012,9 0,0

tt = Température de l'air
td = dewpoint
ff = Vitesse du vent
dd = Direction du vent
ppp = reduced air pressure
rr = Quantités de précipitations

stations d'obs. à proximité